Time;durP1;ratioP1;P1;durP2;ratioP2;P2;SDS_P1;SDS_P2;PMS_P1;PMS_P2;Temp;Humidity;BMP_temperature;BMP_pressure;BME280_temperature;BME280_humidity;BME280_pressure;Samples;Min_cycle;Max_cycle;Signal;HPM_P1;HPM_P2
2021/08/09 03:54:54;;;;;;;5.80;2.90;;;14.30;99.90;;;15.55;90.14;100441.38;6271683;22;20022;-90
2021/08/09 03:57:20;;;;;;;6.15;2.58;;;14.30;99.90;;;15.46;90.36;100444.53;6283836;22;20000;-90
2021/08/09 03:59:46;;;;;;;8.73;2.35;;;14.30;99.90;;;15.45;90.55;100447.72;6282723;22;20035;-89
2021/08/09 04:02:17;;;;;;;5.22;2.42;;;14.30;99.90;;;15.39;90.79;100450.13;6283912;22;20027;-91
2021/08/09 04:04:42;;;;;;;6.97;2.28;;;14.30;99.90;;;15.57;89.83;100453.06;6283489;22;20020;-91
2021/08/09 04:07:10;;;;;;;4.93;2.38;;;14.30;99.90;;;15.48;90.08;100456.22;6283076;22;20007;-90
2021/08/09 04:09:36;;;;;;;5.28;2.42;;;14.40;99.90;;;15.54;89.89;100456.66;6309795;22;20061;-89
2021/08/09 04:12:02;;;;;;;5.22;2.30;;;14.40;99.90;;;15.46;90.32;100461.41;6283680;22;20412;-89
2021/08/09 04:14:28;;;;;;;5.78;2.28;;;14.30;99.90;;;15.43;90.39;100453.78;6290077;22;20007;-91
2021/08/09 04:16:54;;;;;;;4.63;2.15;;;14.30;99.90;;;15.48;90.06;100442.16;6322568;22;20094;-90
2021/08/09 04:19:23;;;;;;;7.13;1.90;;;14.40;99.90;;;15.59;89.67;100450.63;6317506;22;20003;-91
2021/08/09 04:21:49;;;;;;;5.95;2.33;;;14.40;99.90;;;15.57;89.47;100450.25;6291646;22;20015;-90
2021/08/09 04:24:15;;;;;;;6.07;2.25;;;14.40;99.90;;;15.58;89.46;100457.47;6318906;22;20055;-91
2021/08/09 04:26:41;;;;;;;6.40;2.40;;;14.40;99.90;;;15.53;89.77;100455.03;6297700;22;20011;-89
2021/08/09 04:29:10;;;;;;;7.30;2.00;;;14.40;99.90;;;15.50;90.10;100453.84;6297970;22;20053;-91
2021/08/09 04:31:43;;;;;;;5.20;2.00;;;14.40;99.90;;;15.58;89.56;100451.84;6321071;22;20008;-92
2021/08/09 04:34:09;;;;;;;7.05;2.20;;;14.40;99.90;;;15.58;89.48;100463.09;6294592;22;20007;-90
2021/08/09 04:36:35;;;;;;;5.45;2.45;;;14.40;99.90;;;15.58;89.29;100455.47;6295560;22;20000;-90
2021/08/09 04:39:13;;;;;;;6.30;2.28;;;14.40;99.90;;;15.61;88.97;100457.47;6295089;22;20153;-90
2021/08/09 04:41:51;;;;;;;7.40;2.28;;;14.40;99.90;;;15.56;89.16;100455.06;6289002;22;20015;-92
2021/08/09 04:44:17;;;;;;;5.78;2.45;;;14.40;99.90;;;15.62;88.84;100458.28;6312171;22;20008;-88
2021/08/09 04:46:46;;;;;;;4.97;2.20;;;14.40;99.90;;;15.61;88.89;100453.84;6284729;22;20017;-87
2021/08/09 04:49:20;;;;;;;4.68;2.40;;;14.40;99.90;;;15.55;88.99;100467.50;6285006;22;20054;-89
2021/08/09 04:51:46;;;;;;;7.13;2.65;;;14.40;99.90;;;15.52;89.47;100465.50;6284278;22;20007;-90
2021/08/09 04:54:12;;;;;;;7.22;2.22;;;14.40;99.90;;;15.51;89.21;100465.91;6284557;22;20008;-89
2021/08/09 04:56:40;;;;;;;5.65;2.28;;;14.40;99.90;;;15.46;89.65;100467.03;6284564;22;20030;-90
2021/08/09 04:59:06;;;;;;;5.00;2.20;;;14.30;99.90;;;15.53;89.63;100471.94;6284103;22;20007;-91
2021/08/09 05:01:32;;;;;;;7.30;2.50;;;14.30;99.90;;;15.48;90.23;100467.47;6288572;22;20030;-89
2021/08/09 05:04:03;;;;;;;7.75;2.30;;;14.30;99.90;;;15.57;89.63;100464.31;6292072;22;20022;-88
2021/08/09 05:06:33;;;;;;;6.57;2.80;;;14.40;99.90;;;15.69;89.16;100463.94;6303704;22;20012;-89
2021/08/09 05:09:00;;;;;;;4.00;2.00;;;14.40;99.90;;;15.77;88.38;100460.75;6303524;22;19996;-89
2021/08/09 05:11:26;;;;;;;5.40;1.77;;;14.50;99.90;;;15.86;88.25;100466.00;6303676;22;20054;-89
2021/08/09 05:13:51;;;;;;;6.05;2.22;;;14.60;99.90;;;15.93;87.59;100471.66;6303438;22;20000;-89
2021/08/09 05:16:17;;;;;;;6.13;2.50;;;14.70;99.90;;;16.08;86.91;100459.22;6296846;22;20027;-91
2021/08/09 05:18:46;;;;;;;5.60;2.08;;;14.70;99.90;;;16.10;86.74;100470.91;6295378;22;20011;-90
2021/08/09 05:21:16;;;;;;;7.65;2.50;;;14.80;99.90;;;16.08;86.87;100470.50;6284964;22;20098;-91
2021/08/09 05:23:42;;;;;;;4.18;2.03;;;14.90;99.90;;;16.00;86.68;100474.50;6317347;22;19995;-88
2021/08/09 05:26:18;;;;;;;4.93;2.13;;;14.90;99.90;;;16.17;86.06;100475.72;6302710;22;20008;-88
2021/08/09 05:28:44;;;;;;;;;;;14.90;99.90;;;16.18;86.38;100480.19;6327924;22;20157;-90
2021/08/09 05:31:12;;;;;;;7.35;2.08;;;14.90;99.90;;;16.26;85.94;100485.41;6300622;22;19899;-87
2021/08/09 05:33:39;;;;;;;5.13;2.05;;;14.90;99.90;;;16.27;85.62;100489.84;6302928;22;20020;-89
2021/08/09 05:36:06;;;;;;;6.93;2.25;;;15.00;99.90;;;16.48;85.33;100488.25;6317861;22;20012;-89
2021/08/09 05:38:33;;;;;;;5.35;2.17;;;15.10;99.90;;;16.54;84.92;100490.25;6288130;22;20346;-90
2021/08/09 05:41:02;;;;;;;5.68;1.77;;;15.20;99.90;;;16.74;84.09;100485.88;6288492;22;20094;-93
2021/08/09 05:43:28;;;;;;;6.95;2.30;;;15.30;99.90;;;16.84;83.98;100489.88;6289181;22;20035;-88
2021/08/09 05:45:56;;;;;;;4.25;1.60;;;15.50;99.90;;;16.91;83.17;100495.53;6318189;22;20000;-90
2021/08/09 05:48:21;;;;;;;5.00;2.35;;;15.50;99.90;;;17.04;82.52;100498.72;6308169;22;20012;-89
2021/08/09 05:50:48;;;;;;;5.20;2.03;;;15.70;99.90;;;17.14;82.69;100497.91;6281509;22;20007;-89
2021/08/09 05:53:14;;;;;;;4.43;1.65;;;15.70;99.90;;;17.11;82.66;100505.19;6280683;22;20038;-90
2021/08/09 05:55:40;;;;;;;5.30;1.80;;;15.80;99.90;;;17.15;81.66;100508.78;6281889;22;20026;-89
2021/08/09 05:58:07;;;;;;;3.92;1.70;;;15.80;99.90;;;17.06;82.46;100505.56;6280476;22;20004;-89
2021/08/09 06:00:34;;;;;;;6.18;2.17;;;15.80;99.90;;;17.07;82.64;100495.91;6284985;22;20004;-90
2021/08/09 06:03:00;;;;;;;7.05;2.22;;;15.80;99.90;;;17.00;83.61;100510.00;6305706;22;20008;-90
2021/08/09 06:05:27;;;;;;;6.28;1.70;;;15.70;99.90;;;17.01;83.48;100502.38;6279262;22;20035;-91
2021/08/09 06:07:53;;;;;;;3.97;1.60;;;15.70;99.90;;;16.96;84.44;100512.03;6279259;22;20015;-89
2021/08/09 06:10:21;;;;;;;8.10;2.30;;;15.60;99.90;;;16.91;84.86;100503.97;6279295;22;20012;-90
2021/08/09 06:12:50;;;;;;;3.15;1.98;;;15.60;99.90;;;17.03;84.34;100497.09;6278903;22;20345;-89
2021/08/09 06:15:16;;;;;;;4.80;1.77;;;15.60;99.90;;;17.11;84.85;100493.88;6279504;22;20413;-91
2021/08/09 06:17:42;;;;;;;3.28;1.70;;;15.70;99.90;;;17.23;85.13;100490.63;6278964;22;20004;-91
2021/08/09 06:20:09;;;;;;;4.75;1.80;;;15.90;99.90;;;17.35;83.64;100484.53;6279939;22;20058;-88
2021/08/09 06:22:35;;;;;;;8.32;1.92;;;16.00;99.90;;;17.55;83.80;100498.19;6306077;22;20099;-90
2021/08/09 06:25:02;;;;;;;5.70;1.90;;;16.10;99.90;;;17.62;82.73;100498.19;6281772;22;20011;-91
2021/08/09 06:27:29;;;;;;;4.53;1.75;;;16.20;99.90;;;17.77;81.58;100496.91;6281482;22;20004;-91
2021/08/09 06:29:54;;;;;;;5.88;2.00;;;16.30;99.90;;;17.73;82.00;100508.22;6281750;22;20003;-90
2021/08/09 06:32:21;;;;;;;4.90;2.20;;;16.40;99.90;;;17.65;81.85;100494.56;6282203;22;20011;-89
2021/08/09 06:34:46;;;;;;;5.32;1.75;;;16.40;99.90;;;17.70;80.93;100500.56;6282692;22;20445;-90
2021/08/09 06:37:12;;;;;;;4.10;1.83;;;16.40;99.90;;;17.63;81.36;100494.94;6282017;22;20143;-91
2021/08/09 06:39:41;;;;;;;5.47;1.80;;;16.20;99.90;;;17.60;81.44;100497.78;6282403;22;20018;-90
2021/08/09 06:42:08;;;;;;;3.55;1.48;;;16.20;99.90;;;17.53;81.56;100501.41;6281890;22;20064;-90
2021/08/09 06:44:35;;;;;;;8.82;1.90;;;16.20;99.90;;;17.39;82.26;100496.63;6308147;22;20074;-89
2021/08/09 06:47:01;;;;;;;3.10;1.55;;;16.20;99.90;;;17.57;81.51;100499.41;6281380;22;20061;-90
2021/08/09 06:49:29;;;;;;;3.70;1.67;;;16.20;99.90;;;17.49;81.61;100491.34;6284271;22;20050;-90
2021/08/09 06:51:55;;;;;;;5.50;1.77;;;16.20;99.90;;;17.54;81.69;100505.84;6284128;22;20007;-92
2021/08/09 06:54:24;;;;;;;4.28;1.73;;;16.20;99.90;;;17.64;81.47;100507.06;6286602;22;20022;-89
2021/08/09 06:56:53;;;;;;;8.02;1.85;;;16.20;99.90;;;17.71;81.17;100507.84;6288508;22;20011;-89
2021/08/09 06:59:19;;;;;;;4.93;1.60;;;16.20;99.90;;;17.60;81.17;100506.25;6288755;22;20004;-91
2021/08/09 07:01:46;;;;;;;4.88;1.83;;;16.20;99.90;;;17.69;81.51;100510.25;6286204;22;20010;-90
2021/08/09 07:04:13;;;;;;;4.78;1.75;;;16.20;99.90;;;17.74;81.37;100520.34;6286631;22;20348;-90
2021/08/09 07:06:38;;;;;;;2.47;2.03;;;16.20;99.90;;;17.62;81.99;100524.44;6286898;22;20421;-90
2021/08/09 07:09:07;;;;;;;2.63;1.52;;;16.20;99.90;;;17.61;82.05;100522.00;6312845;22;20007;-87
2021/08/09 07:11:34;;;;;;;4.93;2.13;;;16.20;99.90;;;17.46;81.30;100521.22;6288183;22;20058;-91
2021/08/09 07:14:00;;;;;;;7.47;1.75;;;16.20;99.90;;;17.48;81.38;100521.59;6289684;22;20071;-90
2021/08/09 07:16:26;;;;;;;4.40;1.50;;;16.20;99.90;;;17.52;81.09;100519.59;6289932;22;20027;-88
2021/08/09 07:18:54;;;;;;;5.05;1.58;;;16.20;99.90;;;17.44;81.35;100517.16;6290410;22;20007;-90
2021/08/09 07:21:21;;;;;;;4.53;2.10;;;16.20;99.90;;;17.45;80.83;100521.59;6301258;22;20049;-88
2021/08/09 07:23:47;;;;;;;4.20;1.35;;;16.30;99.90;;;17.57;79.11;100521.19;6330752;22;20046;-88
2021/08/09 07:26:13;;;;;;;5.10;1.70;;;16.20;99.90;;;17.52;79.97;100519.59;6303916;22;20019;-90
2021/08/09 07:28:40;;;;;;;2.83;1.70;;;16.20;99.90;;;17.56;79.92;100528.06;6298994;22;20007;-87
2021/08/09 07:31:06;;;;;;;2.78;1.33;;;16.30;99.90;;;17.70;79.59;100530.81;6291242;22;20012;-91
2021/08/09 07:33:32;;;;;;;7.47;1.60;;;16.30;99.90;;;17.81;78.86;100526.75;6283210;22;20008;-90
2021/08/09 07:36:04;;;;;;;4.07;1.70;;;16.40;99.90;;;17.72;79.26;100528.41;6283501;22;20012;-90
2021/08/09 07:38:32;;;;;;;3.63;1.60;;;16.50;99.90;;;17.95;79.54;100523.06;6309165;22;20008;-92
2021/08/09 07:41:00;;;;;;;4.43;1.60;;;16.60;99.90;;;18.01;78.70;100535.56;6283752;22;20152;-91
2021/08/09 07:43:26;;;;;;;4.97;1.63;;;16.70;99.90;;;18.12;77.96;100532.66;6284401;22;20000;-89
2021/08/09 07:45:52;;;;;;;6.03;1.88;;;16.80;99.90;;;18.37;77.77;100530.47;6285130;22;20071;-91
2021/08/09 07:48:18;;;;;;;4.10;1.70;;;17.00;99.90;;;18.49;76.16;100527.19;6286415;22;20014;-91
2021/08/09 07:50:44;;;;;;;3.30;1.42;;;17.10;99.90;;;18.91;74.08;100538.19;6285579;22;20012;-87
2021/08/09 07:53:10;;;;;;;5.18;1.50;;;17.40;99.90;;;19.44;73.23;100540.53;6286519;22;20073;-88
2021/08/09 07:55:37;;;;;;;2.97;1.42;;;17.90;99.90;;;19.60;71.31;100537.13;6286767;22;20011;-90
2021/08/09 07:58:03;;;;;;;7.30;1.98;;;18.10;99.90;;;19.96;71.15;100534.66;6309606;22;20000;-90
2021/08/09 08:00:29;;;;;;;7.05;1.52;;;18.30;99.90;;;19.60;70.49;100534.28;6283515;22;20025;-91
2021/08/09 08:02:55;;;;;;;5.00;1.50;;;18.40;99.90;;;19.92;68.89;100529.03;6283200;22;20078;-90
2021/08/09 08:05:22;;;;;;;3.00;1.10;;;18.50;99.90;;;20.04;69.64;100533.31;6284148;22;20011;-90
2021/08/09 08:07:48;;;;;;;5.28;1.63;;;18.70;99.90;;;20.83;67.08;100525.28;6283861;22;20000;-90
2021/08/09 08:10:14;;;;;;;3.63;1.25;;;19.20;99.90;;;21.23;65.18;100535.56;6309566;22;20003;-90
2021/08/09 08:12:40;;;;;;;2.97;1.52;;;19.60;99.90;;;21.37;64.28;100525.97;6285371;22;20003;-89
2021/08/09 08:15:07;;;;;;;2.45;1.13;;;19.80;99.90;;;20.89;66.12;100532.88;6285020;22;20433;-91
2021/08/09 08:17:34;;;;;;;3.65;1.45;;;19.60;99.90;;;20.61;65.68;100533.34;6312194;22;20026;-91
2021/08/09 08:20:02;;;;;;;4.22;1.50;;;19.40;99.90;;;20.27;67.62;100532.63;6284938;22;20007;-88
2021/08/09 08:22:28;;;;;;;4.10;1.75;;;19.10;99.90;;;20.40;67.21;100540.13;6283421;22;20063;-89
2021/08/09 08:24:53;;;;;;;4.35;1.40;;;19.10;99.90;;;20.67;67.86;100545.81;6284426;22;20010;-90
2021/08/09 08:27:20;;;;;;;5.07;1.27;;;19.30;99.90;;;21.04;64.94;100544.78;6286181;22;20027;-87
2021/08/09 08:29:46;;;;;;;4.13;1.67;;;19.50;99.90;;;20.88;64.81;100542.63;6284817;22;20348;-88
2021/08/09 08:32:12;;;;;;;4.25;1.33;;;19.50;99.90;;;21.03;64.39;100546.00;6287013;22;20011;-92
2021/08/09 08:34:38;;;;;;;4.38;1.25;;;19.60;99.90;;;21.35;64.35;100549.13;6284028;22;20015;-89
2021/08/09 08:37:04;;;;;;;4.40;1.42;;;19.70;99.90;;;;;;6285300;22;20316;-89
2021/08/09 08:39:31;;;;;;;4.70;1.30;;;19.80;99.90;;;21.14;63.07;100543.84;6296364;22;20023;-86
2021/08/09 08:41:57;;;;;;;2.80;1.48;;;19.80;99.90;;;21.03;64.83;100546.81;6302456;22;20020;-87
2021/08/09 08:44:23;;;;;;;4.30;1.27;;;19.70;99.90;;;20.76;65.59;100540.41;6301556;22;20039;-89
2021/08/09 08:46:55;;;;;;;4.72;1.45;;;19.70;99.90;;;21.16;64.70;100547.03;6300928;22;20004;-90
2021/08/09 08:49:26;;;;;;;5.57;1.40;;;19.80;99.90;;;21.48;64.00;100540.78;6301898;22;20012;-89
2021/08/09 08:51:53;;;;;;;3.95;1.30;;;20.10;99.90;;;21.71;63.19;100552.06;6290233;22;20468;-91
2021/08/09 08:54:19;;;;;;;4.55;1.20;;;20.20;99.90;;;21.30;63.50;100546.78;6307494;22;20015;-92
2021/08/09 08:56:48;;;;;;;4.63;1.23;;;20.10;99.90;;;20.98;62.79;100549.34;6282879;22;20019;-91
2021/08/09 08:59:15;;;;;;;3.35;1.23;;;20.00;99.90;;;20.86;63.07;100552.81;6283373;22;20008;-90
2021/08/09 09:01:45;;;;;;;7.30;1.80;;;19.80;99.90;;;21.13;63.71;100544.28;6281997;22;20073;-90
2021/08/09 09:04:30;;;;;;;4.43;1.20;;;19.90;99.90;;;21.82;60.79;100549.84;6281983;22;20008;-90
2021/08/09 09:07:08;;;;;;;5.57;1.40;;;20.40;99.90;;;22.11;60.67;100546.41;6284714;22;20075;-90
2021/08/09 09:09:39;;;;;;;2.75;1.30;;;20.90;99.90;;;23.02;57.51;100552.81;6281939;22;20417;-90
2021/08/09 09:12:19;;;;;;;2.92;1.25;;;21.50;99.90;;;23.44;56.68;100548.06;6281244;22;20513;-89
2021/08/09 09:15:06;;;;;;;3.67;1.38;;;21.90;99.90;;;23.92;55.87;100547.13;6307347;22;20003;-90
2021/08/09 09:17:40;;;;;;;3.90;1.40;;;22.40;99.90;;;24.28;54.73;100549.75;6284720;22;20042;-91
2021/08/09 09:20:41;;;;;;;4.18;1.02;;;22.80;99.90;;;23.90;53.70;100528.84;6284457;22;20011;-88
2021/08/09 09:23:24;;;;;;;5.65;1.88;;;22.80;99.90;;;23.99;53.78;100534.69;6220906;23;20016;-89
2021/08/09 09:25:53;;;;;;;5.30;1.35;;;22.70;99.90;;;24.47;55.21;100531.59;6299339;22;20019;-89
2021/08/09 09:28:33;;;;;;;2.85;1.20;;;22.90;99.90;;;24.31;54.42;100537.41;6283506;22;20010;-90
2021/08/09 09:31:06;;;;;;;4.88;1.40;;;23.00;99.90;;;25.17;52.94;100524.84;6284349;22;20000;-90
2021/08/09 09:33:33;;;;;;;2.70;1.15;;;23.30;99.90;;;25.75;51.18;100524.41;6285513;22;20034;-89
2021/08/09 09:36:04;;;;;;;3.47;1.08;;;23.70;99.90;;;24.92;51.50;100528.53;6284266;22;20008;-89
2021/08/09 09:38:44;;;;;;;2.70;1.00;;;23.60;99.90;;;25.23;51.33;100517.28;6290272;22;20059;-90
2021/08/09 09:41:13;;;;;;;4.30;1.50;;;23.60;99.90;;;24.74;51.45;100521.78;6302686;22;20066;-90
2021/08/09 09:43:45;;;;;;;5.13;1.50;;;23.50;99.90;;;25.14;51.22;100522.91;6283193;22;20011;-90
2021/08/09 09:46:29;;;;;;;4.68;1.30;;;23.70;99.90;;;25.02;47.73;100529.41;6281502;22;20012;-90
2021/08/09 09:49:06;;;;;;;3.03;0.98;;;23.80;95.50;;;25.00;49.15;100529.09;6281627;22;20007;-90
2021/08/09 09:51:44;;;;;;;3.25;1.40;;;23.80;97.10;;;25.33;47.67;100538.16;6282585;22;20023;-91
2021/08/09 09:54:10;;;;;;;5.78;1.40;;;23.90;94.90;;;24.70;49.34;100532.50;6282319;22;20018;-89
2021/08/09 09:56:40;;;;;;;3.58;1.08;;;23.70;95.50;;;24.63;51.13;100527.81;6282916;22;20004;-88
2021/08/09 09:59:08;;;;;;;3.78;1.42;;;23.40;98.80;;;24.60;50.53;100531.59;6281958;22;20019;-89
2021/08/09 10:01:35;;;;;;;2.28;1.20;;;23.40;97.60;;;23.44;50.84;100528.13;6283244;22;20018;-90
2021/08/09 10:04:00;;;;;;;3.33;1.20;;;22.80;95.30;;;23.57;51.71;100528.97;6308703;22;20067;-91
2021/08/09 10:06:29;;;;;;;3.50;1.17;;;22.50;98.30;;;23.36;52.88;100531.59;6281814;22;20413;-90
2021/08/09 10:08:59;;;;;;;5.00;1.13;;;22.20;99.90;;;23.08;54.40;100550.25;6284509;22;20027;-90
2021/08/09 10:11:29;;;;;;;5.10;1.38;;;21.90;99.90;;;22.76;54.11;100536.00;6285476;22;20007;-88
2021/08/09 10:13:59;;;;;;;4.60;1.38;;;21.60;99.90;;;22.17;55.91;100536.13;6284987;22;20008;-89
2021/08/09 10:16:36;;;;;;;2.60;1.35;;;21.20;99.90;;;22.22;56.28;100536.41;6286840;22;20015;-89
2021/08/09 10:19:04;;;;;;;2.30;1.25;;;20.90;99.90;;;22.00;55.96;100526.72;6290070;22;20007;-90
2021/08/09 10:21:33;;;;;;;3.75;1.25;;;20.90;99.90;;;22.06;55.46;100527.81;6282898;22;20003;-91
2021/08/09 10:24:01;;;;;;;2.25;1.00;;;21.00;99.90;;;22.29;55.45;100524.88;6282092;22;20011;-93
2021/08/09 10:26:48;;;;;;;4.18;1.27;;;21.00;99.90;;;22.39;55.24;100535.22;6283521;22;20003;-90
2021/08/09 10:29:14;;;;;;;5.63;1.40;;;20.80;99.90;;;22.37;56.35;100532.00;6282020;22;20014;-91
2021/08/09 10:32:21;;;;;;;4.07;1.27;;;20.80;99.90;;;22.43;55.99;100541.63;6282288;22;20011;-92
2021/08/09 10:34:57;;;;;;;3.10;1.13;;;20.80;99.90;;;22.06;57.15;100539.19;6219554;23;20017;-89
2021/08/09 15:05:35;;;;;;;4.28;1.20;;;22.10;91.70;;;22.58;51.66;100531.50;6224103;23;20032;-89
2021/08/09 15:08:05;;;;;;;2.88;1.00;;;21.70;93.20;;;22.36;52.80;100529.59;6218246;23;20024;-88
2021/08/09 15:10:41;;;;;;;4.15;1.40;;;21.50;94.60;;;22.29;52.58;100530.56;6195263;23;20009;-91
2021/08/09 15:13:07;;;;;;;4.95;1.38;;;21.30;94.60;;;22.40;52.83;100531.13;6194423;23;20096;-90
2021/08/09 15:15:51;;;;;;;3.13;1.25;;;21.30;95.60;;;22.11;53.97;100535.84;6193693;23;20147;-89
2021/08/09 15:18:19;;;;;;;2.28;0.90;;;21.10;96.60;;;22.05;54.10;100538.41;6192718;23;20008;-90
2021/08/09 15:20:51;;;;;;;2.75;1.10;;;21.00;97.20;;;21.89;54.60;100534.72;6194803;23;20005;-88
2021/08/09 15:23:18;;;;;;;2.97;1.00;;;20.90;97.90;;;21.91;55.11;100529.38;6195650;23;20024;-90
2021/08/09 15:25:44;;;;;;;2.47;1.00;;;20.80;99.60;;;21.89;55.58;100523.34;6221388;23;20084;-89
2021/08/09 15:28:12;;;;;;;4.65;1.00;;;20.80;99.90;;;21.91;55.80;100523.69;6195558;23;20008;-89
2021/08/09 15:30:39;;;;;;;2.38;0.82;;;20.80;99.90;;;21.83;56.25;100525.84;6198259;23;20015;-91
2021/08/09 15:33:06;;;;;;;4.57;1.50;;;20.70;99.90;;;21.78;56.00;100531.25;6198649;23;20040;-90
2021/08/09 15:35:33;;;;;;;2.33;1.20;;;20.70;99.90;;;21.80;56.57;100534.47;6197973;23;20009;-88
2021/08/09 15:37:59;;;;;;;4.03;0.90;;;20.60;99.90;;;21.74;56.03;100527.66;6198126;23;20106;-88
2021/08/09 15:40:26;;;;;;;2.85;1.10;;;20.50;99.90;;;21.59;57.07;100527.16;6197375;23;20009;-90
2021/08/09 15:42:52;;;;;;;4.30;1.15;;;20.40;99.90;;;21.62;56.30;100526.28;6195908;23;20004;-91
2021/08/09 15:45:19;;;;;;;4.63;1.40;;;20.40;99.90;;;21.45;57.31;100530.25;6197941;23;20009;-91
2021/08/09 15:47:49;;;;;;;1.40;1.00;;;20.40;99.90;;;21.54;57.15;100539.81;6198577;23;20095;-89
2021/08/09 15:50:18;;;;;;;3.40;1.20;;;20.40;99.90;;;21.43;57.29;100529.91;6198464;23;20009;-89
2021/08/09 15:52:48;;;;;;;3.50;1.00;;;20.30;99.90;;;21.55;57.35;100532.91;6196729;23;20008;-89
2021/08/09 15:55:16;;;;;;;3.42;1.10;;;20.30;99.90;;;21.59;57.71;100535.69;6196059;23;20004;-88
2021/08/09 15:57:47;;;;;;;1.92;0.95;;;20.30;99.90;;;21.46;57.67;100527.00;6195240;23;19997;-91
2021/08/09 16:00:22;;;;;;;1.95;0.85;;;20.30;99.90;;;21.49;57.79;100528.16;6196428;23;20087;-91
2021/08/09 16:02:49;;;;;;;2.70;1.10;;;20.30;99.90;;;21.49;56.83;100531.00;6196304;23;20005;-91
2021/08/09 16:05:18;;;;;;;2.63;0.95;;;20.30;99.90;;;21.48;57.22;100544.41;6196803;23;20028;-89
2021/08/09 16:07:51;;;;;;;3.63;1.27;;;20.30;99.90;;;21.55;57.65;100543.47;6195806;23;20021;-88
2021/08/09 16:10:17;;;;;;;3.08;0.90;;;20.30;99.90;;;21.46;57.08;100538.38;6195496;23;20031;-90
2021/08/09 16:12:50;;;;;;;1.33;0.88;;;20.30;99.90;;;21.46;56.83;100540.41;6196144;23;20398;-89
2021/08/09 16:15:16;;;;;;;2.05;1.23;;;20.30;99.90;;;21.24;56.91;100531.47;6195494;23;20369;-87
2021/08/09 16:17:57;;;;;;;3.10;1.05;;;20.20;99.90;;;21.22;57.56;100530.31;6195878;23;20008;-88
2021/08/09 16:20:23;;;;;;;3.80;1.08;;;20.20;99.90;;;21.00;59.05;100532.69;6196240;23;20016;-89
2021/08/09 16:22:49;;;;;;;2.85;1.25;;;20.10;99.90;;;20.96;58.48;100534.81;6196291;23;20008;-89
2021/08/09 16:25:18;;;;;;;2.70;1.15;;;20.00;99.90;;;20.72;59.94;100536.81;6197192;23;20199;-87
2021/08/09 16:27:45;;;;;;;2.72;1.25;;;19.90;99.90;;;20.76;60.58;100545.25;6197504;23;20027;-88
2021/08/09 16:30:26;;;;;;;3.13;1.08;;;19.80;99.90;;;20.66;60.39;100538.53;6212448;23;19992;-88
2021/08/09 16:32:53;;;;;;;5.55;1.63;;;19.70;99.90;;;20.64;60.75;100554.38;6236754;22;20074;-90
2021/08/09 16:35:19;;;;;;;2.85;1.40;;;19.60;99.90;;;20.54;60.62;100550.47;6197142;23;20070;-88
2021/08/09 16:37:47;;;;;;;2.70;1.30;;;19.50;99.90;;;20.35;61.11;100560.50;6196423;23;20012;-91
2021/08/09 16:40:14;;;;;;;2.08;1.10;;;19.40;99.90;;;20.42;61.37;100557.53;6197422;23;20012;-90
2021/08/09 16:42:40;;;;;;;4.63;1.38;;;19.30;99.90;;;20.24;62.16;100558.97;6198582;23;20012;-89
2021/08/09 16:45:07;;;;;;;4.20;1.45;;;19.20;99.90;;;20.11;63.58;100553.06;6198434;23;20012;-89
2021/08/09 16:47:33;;;;;;;2.97;1.40;;;19.10;99.90;;;20.04;64.06;100570.19;6198932;23;20008;-90
2021/08/09 16:49:59;;;;;;;2.92;1.10;;;19.00;99.90;;;19.98;64.72;100555.69;6197239;23;20008;-89
2021/08/09 16:52:26;;;;;;;1.45;1.08;;;18.90;99.90;;;19.98;65.73;100567.00;6222977;23;20015;-89
2021/08/09 16:54:51;;;;;;;5.75;1.20;;;18.80;99.90;;;19.78;68.01;100568.06;6203392;23;20019;-89
2021/08/09 16:57:31;;;;;;;3.92;1.50;;;18.70;99.90;;;19.36;72.27;100558.78;6214475;23;20016;-89
2021/08/09 16:59:58;;;;;;;4.93;1.45;;;18.40;99.90;;;19.00;75.88;100563.19;6239871;22;20000;-90
2021/08/09 17:02:26;;;;;;;4.70;1.50;;;18.10;99.90;;;18.98;77.90;100570.47;6215218;23;20009;-88
2021/08/09 17:05:58;;;;;;;2.35;1.40;;;17.80;99.90;;;18.69;81.51;100567.06;6215009;23;20014;-88
2021/08/09 17:09:02;;;;;;;7.57;1.50;;;17.60;99.90;;;18.55;84.80;100589.81;6202977;23;20024;-90
2021/08/09 17:20:33;;;;;;;4.20;1.80;;;17.00;99.90;;;18.11;89.10;100625.13;6078068;23;20082;-89
2021/08/09 17:23:02;;;;;;;;;;;16.80;99.90;;;18.10;90.66;100623.53;6082490;23;20523;-90
2021/08/09 17:25:41;;;;;;;6.93;2.15;;;16.80;99.90;;;17.82;91.82;100629.25;6082847;23;19969;-91
2021/08/09 17:28:19;;;;;;;4.85;1.90;;;16.70;99.90;;;17.81;92.32;100633.31;6054447;23;20011;-91
2021/08/09 17:30:51;;;;;;;4.20;1.58;;;16.60;99.90;;;17.62;91.41;100631.75;6156520;23;20008;-90
2021/08/09 17:33:18;;;;;;;2.83;1.50;;;16.50;99.90;;;17.50;91.94;100615.16;6222129;23;20531;-90
2021/08/09 17:59:04;;;;;;;6.40;1.92;;;15.90;99.90;;;17.03;99.11;100604.31;6255716;22;20020;-89
2021/08/09 18:01:33;;;;;;;3.80;1.65;;;16.00;99.90;;;16.94;97.65;100596.28;6254470;22;20008;-88
2021/08/09 18:03:59;;;;;;;3.10;1.98;;;15.90;99.90;;;16.95;97.55;100608.38;6288736;22;19996;-92
2021/08/09 18:06:27;;;;;;;2.28;1.50;;;15.90;99.90;;;17.04;96.99;100606.75;6261529;22;20106;-90
2021/08/09 18:08:53;;;;;;;4.05;2.00;;;16.00;99.90;;;16.92;96.91;100600.72;6256544;22;20008;-90
2021/08/09 18:11:20;;;;;;;2.90;1.70;;;15.90;99.90;;;16.90;97.29;100601.09;6254294;22;20007;-94
2021/08/09 18:13:49;;;;;;;2.45;1.80;;;15.80;99.90;;;16.94;96.81;100606.75;6257303;22;20027;-93
2021/08/09 18:16:17;;;;;;;2.70;1.73;;;15.80;99.90;;;16.89;96.23;100595.88;6256410;22;20035;-90
2021/08/09 18:18:43;;;;;;;3.22;1.58;;;15.80;99.90;;;16.82;95.75;100605.13;6281674;22;20368;-91
2021/08/09 18:21:10;;;;;;;4.75;1.60;;;15.80;99.90;;;16.85;96.09;100615.63;6254783;22;20004;-91
2021/08/09 18:23:36;;;;;;;3.28;1.63;;;15.70;99.90;;;16.75;96.59;100617.22;6282179;22;20034;-90
2021/08/09 18:26:10;;;;;;;2.45;1.40;;;15.60;99.90;;;16.66;96.24;100607.53;6254176;22;20069;-91
2021/08/09 18:28:36;;;;;;;5.50;1.83;;;15.60;99.90;;;16.64;97.19;100604.28;6255761;22;20008;-90
2021/08/09 18:31:02;;;;;;;5.70;1.65;;;15.60;99.90;;;16.61;98.01;100611.53;6254438;22;20141;-90
2021/08/09 18:33:30;;;;;;;4.03;1.58;;;15.60;99.90;;;16.53;97.13;100618.34;6255641;22;20039;-91
2021/08/09 18:35:58;;;;;;;3.58;1.27;;;15.50;99.90;;;16.61;97.07;100610.72;6258902;22;20031;-91
2021/08/09 18:38:28;;;;;;;7.45;2.00;;;15.40;99.90;;;16.58;96.46;100597.44;6256061;22;20026;-90
2021/08/09 18:40:54;;;;;;;3.40;1.50;;;15.50;99.90;;;16.48;96.19;100598.19;6255731;22;20109;-89
2021/08/09 18:43:21;;;;;;;6.22;1.52;;;15.40;99.90;;;16.52;97.05;100594.19;6257302;22;20012;-92
2021/08/09 18:45:47;;;;;;;3.92;1.70;;;15.40;99.90;;;16.47;97.87;100599.41;6256049;22;20019;-88
2021/08/09 18:48:13;;;;;;;4.60;1.63;;;15.30;99.90;;;16.49;96.87;100611.91;6256711;22;20004;-91
2021/08/09 18:50:39;;;;;;;2.42;1.60;;;15.30;99.90;;;16.44;97.80;100615.09;6256521;22;20030;-89
2021/08/09 18:53:06;;;;;;;3.10;1.95;;;15.30;99.90;;;16.50;97.66;100610.69;6268175;22;19995;-91
2021/08/09 18:55:32;;;;;;;4.75;1.42;;;15.20;99.90;;;16.40;98.19;100599.38;6273768;22;20469;-91
2021/08/09 18:58:00;;;;;;;4.65;1.52;;;15.20;99.90;;;16.49;98.19;100602.63;6267865;22;20015;-89
2021/08/09 19:00:26;;;;;;;2.33;1.70;;;15.20;99.90;;;16.43;98.55;100604.22;6263405;22;20023;-90
2021/08/09 19:02:52;;;;;;;3.00;1.65;;;15.20;99.90;;;16.32;98.96;100604.19;6275633;22;20027;-90
2021/08/09 19:05:18;;;;;;;3.10;1.67;;;15.20;99.90;;;16.30;99.58;100615.88;6273411;22;20023;-88
2021/08/09 19:07:44;;;;;;;3.67;2.20;;;15.20;99.90;;;16.39;100.00;100609.84;6269280;22;20000;-90
2021/08/09 19:10:12;;;;;;;2.72;1.88;;;15.20;99.90;;;16.41;99.03;100610.25;6264014;22;20095;-90
2021/08/09 19:12:39;;;;;;;2.83;1.90;;;15.20;99.90;;;16.41;99.45;100615.88;6268354;22;20003;-90
2021/08/09 19:15:11;;;;;;;3.03;1.98;;;15.30;99.90;;;16.36;100.00;100613.47;6269741;22;20014;-90